createdAt,value
2023-04-26T01:04:06.566Z,0.2
2023-04-26T01:09:05.512Z,0.2
2023-04-26T01:14:05.896Z,0.2
2023-04-26T01:19:07.613Z,0.2
2023-04-26T01:24:02.855Z,0.2
2023-04-26T01:29:02.563Z,0.2
2023-04-26T01:34:01.692Z,0.2
2023-04-26T01:39:02.073Z,0.2
2023-04-26T01:43:58.980Z,0.2
2023-04-26T01:48:58.773Z,0.2
2023-04-26T01:53:58.471Z,0.2
2023-04-26T01:58:57.745Z,0.2
2023-04-26T02:00:41.400Z,0.2
2023-04-26T02:12:41.375Z,0.2
2023-04-26T02:15:31.499Z,0.2
2023-04-26T02:26:12.131Z,0.2
2023-04-26T02:30:29.361Z,0.2
2023-04-26T02:35:17.306Z,0.2
2023-04-26T02:40:16.663Z,0.2
2023-04-26T02:45:14.865Z,0.2
2023-04-26T02:50:14.339Z,0.2
2023-04-26T02:59:41.713Z,0.2
2023-04-26T03:04:41.120Z,0.2
2023-04-26T03:09:40.426Z,0.2
2023-04-26T03:14:40.481Z,0.2
2023-04-26T03:19:40.360Z,0.2
2023-04-26T03:24:42.555Z,0.2
2023-04-26T03:29:37.400Z,0.2
2023-04-26T03:34:37.789Z,0.2
2023-04-26T03:39:36.914Z,0.2
2023-04-26T03:44:36.764Z,0.2
2023-04-26T03:49:34.544Z,0.3
2023-04-26T03:54:34.139Z,0.4
2023-04-26T03:59:30.386Z,0.6
2023-04-26T04:04:32.856Z,1.3
2023-04-26T04:09:17.734Z,2.2
2023-04-26T04:14:17.261Z,3.4
2023-04-26T04:19:16.866Z,3.8
2023-04-26T04:24:15.462Z,5.4
2023-04-26T04:29:15.415Z,7.1
2023-04-26T04:34:14.280Z,9.2
2023-04-26T04:39:14.720Z,11.9
2023-04-26T04:44:15.694Z,14.6
2023-04-26T04:49:12.588Z,16.3
2023-04-26T04:54:11.831Z,18.5
2023-04-26T04:59:12.149Z,20.2
2023-04-26T05:04:12.814Z,22.8
2023-04-26T05:09:09.135Z,23.9
2023-04-26T05:14:12.098Z,25.9
2023-04-26T05:19:09.596Z,26.9
2023-04-26T05:24:08.559Z,29.1
2023-04-26T05:29:06.804Z,32.1
2023-04-26T05:34:06.796Z,32.9
2023-04-26T05:39:06.031Z,34.6
2023-04-26T05:44:06.241Z,36.9
2023-04-26T05:49:06.801Z,39.9
2023-04-26T05:54:04.306Z,45.5
2023-04-26T05:59:04.295Z,42.8
2023-04-26T06:00:48.399Z,43.4
2023-04-26T06:05:25.507Z,44.5
2023-04-26T06:10:34.607Z,46.7
2023-04-26T06:20:35.149Z,50.2
2023-04-26T06:25:31.873Z,52.9
2023-04-26T06:30:31.713Z,58.4
2023-04-26T06:35:32.372Z,63.7
2023-04-26T06:40:30.653Z,67.7
2023-04-26T06:45:30.238Z,66.2
2023-04-26T06:50:30.271Z,62.9
2023-04-26T06:55:29.241Z,67.1
2023-04-26T09:04:35.422Z,537.9
2023-04-26T09:09:35.295Z,342.1
2023-04-26T09:14:32.678Z,398.4
2023-04-26T09:19:32.548Z,573.2
2023-04-26T09:24:31.774Z,584
2023-04-26T09:29:32.150Z,562.7
2023-04-26T09:34:31.697Z,575.2
2023-04-26T09:39:32.692Z,587.4
2023-04-26T09:44:29.940Z,632.5
2023-04-26T09:49:29.828Z,684
2023-04-26T09:54:31.419Z,930.5
2023-04-26T09:59:18.163Z,817.8
2023-04-26T10:04:19.603Z,654.5
2023-04-26T10:09:17.023Z,565.2
2023-04-26T10:14:17.290Z,620
2023-04-26T10:19:15.380Z,1031.3
2023-04-26T10:24:14.508Z,362.3
2023-04-26T10:29:20.321Z,801.4
2023-04-26T10:34:14.116Z,321.8
2023-04-26T10:39:14.295Z,341.8
2023-04-26T10:44:13.215Z,416.2
2023-04-26T10:49:13.583Z,462.6
2023-04-26T10:54:13.098Z,379.1
2023-04-26T11:00:59.489Z,453.7
2023-04-26T11:05:31.358Z,387.5
2023-04-26T11:10:30.810Z,489.9
2023-04-26T11:15:30.268Z,583.7
2023-04-26T11:20:29.972Z,642
2023-04-26T11:25:29.098Z,573.1
2023-04-26T11:30:29.555Z,456.8
2023-04-26T11:35:30.713Z,478.7
2023-04-26T11:40:27.411Z,610.6
2023-04-26T11:45:27.544Z,1029.5
2023-04-26T11:50:26.814Z,372.8
2023-04-26T11:55:26.003Z,355.7
2023-04-26T12:34:33.742Z,298.6
2023-04-26T14:04:17.308Z,806.7
2023-04-26T14:09:14.090Z,757.6
2023-04-26T14:14:15.827Z,558.6
2023-04-26T14:19:10.350Z,714.8
2023-04-26T14:24:10.336Z,695.8
2023-04-26T14:29:10.484Z,644
2023-04-26T14:34:10.022Z,625.6
2023-04-26T14:39:10.135Z,149.3
2023-04-26T14:44:09.265Z,155.7
2023-04-26T14:49:09.071Z,535.6
2023-04-26T14:54:09.300Z,611.1
2023-04-26T14:59:09.719Z,368.2
2023-04-26T15:04:08.536Z,191.8
2023-04-26T15:09:05.831Z,158.9
2023-04-26T15:14:04.637Z,115.9
2023-04-26T15:19:04.582Z,363.3
2023-04-26T15:24:02.438Z,114.6
2023-04-26T15:29:01.932Z,113.5
2023-04-26T15:34:00.900Z,104.3
2023-04-26T15:39:00.497Z,130.1
2023-04-26T15:43:59.519Z,277.6
2023-04-26T15:48:59.933Z,352.9
2023-04-26T15:54:04.538Z,160
2023-04-26T15:59:02.432Z,478.1
2023-04-26T16:00:49.202Z,436.2
2023-04-26T16:05:31.737Z,274.6
2023-04-26T16:10:31.750Z,160.9
2023-04-26T16:15:30.215Z,194.7
2023-04-26T16:20:33.024Z,210.9
2023-04-26T16:25:30.891Z,237.4
2023-04-26T16:30:29.974Z,131.9
2023-04-26T16:35:30.633Z,99.9
2023-04-26T16:40:29.820Z,94.4
2023-04-26T16:45:19.962Z,99.6
2023-04-26T16:50:16.491Z,103.4
2023-04-26T16:55:16.714Z,107
2023-04-26T17:14:30.633Z,152.7
2023-04-26T19:00:54.971Z,0.3
2023-04-26T19:40:35.063Z,0.2
2023-04-26T19:59:27.864Z,0.2
2023-04-26T20:04:27.416Z,0.2
2023-04-26T20:09:26.629Z,0.2
2023-04-26T20:14:34.370Z,0.2
2023-04-26T20:24:34.702Z,0.2
2023-04-26T20:29:33.826Z,0.1
2023-04-26T20:40:15.896Z,0.2
2023-04-26T23:00:55.633Z,0.2
